ADDS METAR Data

Data at: 0744 UTC 24 Oct 2017

METAR for:KMLT (Millinocket Muni, ME, US)
Text:KMLT 240653Z AUTO 00000KT 1 1/4SM BR OVC003 13/13 A3016 RMK AO2 SLP219 T01280128 TSNO
Temperature: 12.8°C ( 55°F)
Dewpoint: 12.8°C ( 55°F) [RH = 100%]
Pressure (altimeter):30.16 inches Hg (1021.4 mb) [Sea level pressure: 1021.9 mb]
Winds:calm
Visibility: 1.25 sm ( 2.01 km)
Ceiling:300 feet AGL
Clouds: overcast cloud deck at 300 feet AGL
Weather:BR (mist)
QC Flag:automated observation with no human augmentation